Time;durP1;ratioP1;P1;durP2;ratioP2;P2;SDS_P1;SDS_P2;PMS_P1;PMS_P2;Temp;Humidity;BMP_temperature;BMP_pressure;BME280_temperature;BME280_humidity;BME280_pressure;Samples;Min_cycle;Max_cycle;Signal;HPM_P1;HPM_P2
2024/01/16 00:01:01;;;;;;;6.78;2.80;;;;;;;;;;4940534;29;20581;-80
2024/01/16 00:03:28;;;;;;;4.93;3.58;;;;;;;;;;4926765;29;20054;-81
2024/01/16 00:05:55;;;;;;;5.43;2.47;;;;;;;;;;4928392;29;20052;-80
2024/01/16 00:08:23;;;;;;;6.32;2.38;;;;;;;;;;4925454;29;20051;-80
2024/01/16 00:10:50;;;;;;;5.00;2.30;;;;;;;;;;4941015;29;20141;-80
2024/01/16 00:13:17;;;;;;;3.88;2.38;;;;;;;;;;4942102;29;20055;-81
2024/01/16 00:15:44;;;;;;;5.53;2.30;;;;;;;;;;4926094;29;20061;-81
2024/01/16 00:18:11;;;;;;;3.20;2.30;;;;;;;;;;4926008;29;20074;-80
2024/01/16 00:20:38;;;;;;;4.95;2.65;;;;;;;;;;4942310;29;20078;-81
2024/01/16 00:23:05;;;;;;;4.93;3.00;;;;;;;;;;4931926;29;20131;-81
2024/01/16 00:25:32;;;;;;;4.95;2.83;;;;;;;;;;4943054;29;20059;-81
2024/01/16 00:27:59;;;;;;;8.07;2.95;;;;;;;;;;4943336;28;20059;-81
2024/01/16 00:30:25;;;;;;;5.18;3.58;;;;;;;;;;4927250;29;20047;-81
2024/01/16 00:32:52;;;;;;;6.55;3.30;;;;;;;;;;4939651;29;20502;-82
2024/01/16 00:35:19;;;;;;;6.53;2.95;;;;;;;;;;4927348;29;20063;-81
2024/01/16 00:37:46;;;;;;;10.35;3.47;;;;;;;;;;4941787;29;20051;-82
2024/01/16 00:40:13;;;;;;;3.95;2.55;;;;;;;;;;4926368;29;20616;-81
2024/01/16 00:42:40;;;;;;;4.85;2.80;;;;;;;;;;4938211;28;20051;-82
2024/01/16 00:45:07;;;;;;;6.68;3.13;;;;;;;;;;4958524;28;20055;-82
2024/01/16 00:47:33;;;;;;;6.68;2.90;;;;;;;;;;4929511;29;20059;-81
2024/01/16 00:50:01;;;;;;;5.20;3.08;;;;;;;;;;4925640;29;20062;-79
2024/01/16 00:52:29;;;;;;;3.15;2.75;;;;;;;;;;4923608;29;20139;-79
2024/01/16 00:54:56;;;;;;;6.15;2.78;;;;;;;;;;4943053;29;20051;-79
2024/01/16 00:57:22;;;;;;;5.57;2.97;;;;;;;;;;4929036;29;20055;-79
2024/01/16 00:59:49;;;;;;;5.55;3.25;;;;;;;;;;4941306;29;20507;-78
2024/01/16 01:02:16;;;;;;;3.55;2.20;;;;;;;;;;4921709;29;20052;-78
2024/01/16 01:04:43;;;;;;;7.80;2.97;;;;;;;;;;4937648;29;20059;-78
2024/01/16 01:07:13;;;;;;;5.57;2.53;;;;;;;;;;4924477;29;20051;-78
2024/01/16 01:09:40;;;;;;;3.55;2.67;;;;;;;;;;4924842;29;20063;-78
2024/01/16 01:12:06;;;;;;;5.25;3.47;;;;;;;;;;4921930;29;20083;-79
2024/01/16 01:14:33;;;;;;;4.95;3.13;;;;;;;;;;4938067;29;20074;-78
2024/01/16 01:17:00;;;;;;;6.43;2.58;;;;;;;;;;4925678;29;20112;-78
2024/01/16 01:19:27;;;;;;;4.18;2.80;;;;;;;;;;4925680;29;20059;-79
2024/01/16 01:21:54;;;;;;;3.80;2.40;;;;;;;;;;4924420;29;20144;-78
2024/01/16 01:24:21;;;;;;;5.05;2.80;;;;;;;;;;4925315;29;20116;-78
2024/01/16 01:26:48;;;;;;;5.13;2.90;;;;;;;;;;4942797;29;20688;-79
2024/01/16 01:29:15;;;;;;;4.43;2.70;;;;;;;;;;4944670;29;20066;-78
2024/01/16 01:31:46;;;;;;;5.85;2.70;;;;;;;;;;4929250;29;20115;-78
2024/01/16 01:34:13;;;;;;;4.18;2.58;;;;;;;;;;4925951;29;20055;-78
2024/01/16 01:36:40;;;;;;;3.40;2.75;;;;;;;;;;4926147;29;20511;-78
2024/01/16 01:39:07;;;;;;;8.88;3.58;;;;;;;;;;4926260;29;20467;-79
2024/01/16 01:41:34;;;;;;;8.30;3.05;;;;;;;;;;4957160;29;20138;-78
2024/01/16 01:44:01;;;;;;;5.65;2.92;;;;;;;;;;4942477;29;20542;-78
2024/01/16 01:46:27;;;;;;;9.70;3.55;;;;;;;;;;4940918;29;20063;-78
2024/01/16 01:48:54;;;;;;;6.30;3.35;;;;;;;;;;4924787;29;20078;-78
2024/01/16 01:51:21;;;;;;;4.47;2.85;;;;;;;;;;4924349;29;20079;-78
2024/01/16 01:53:49;;;;;;;4.68;2.67;;;;;;;;;;4939993;29;20102;-78
2024/01/16 01:56:19;;;;;;;6.85;3.10;;;;;;;;;;4940427;29;20065;-79
2024/01/16 01:58:47;;;;;;;7.65;3.30;;;;;;;;;;4924474;29;20129;-78
2024/01/16 02:01:15;;;;;;;5.05;2.80;;;;;;;;;;4923943;29;20150;-79
2024/01/16 02:03:46;;;;;;;8.68;3.00;;;;;;;;;;4938375;29;20047;-79
2024/01/16 02:06:13;;;;;;;6.50;2.50;;;;;;;;;;4939732;29;20154;-79
2024/01/16 02:08:40;;;;;;;5.60;3.40;;;;;;;;;;4926255;29;20055;-79
2024/01/16 02:11:08;;;;;;;5.78;2.70;;;;;;;;;;4927393;29;20073;-79
2024/01/16 02:13:35;;;;;;;6.20;3.00;;;;;;;;;;4941287;29;20510;-79
2024/01/16 02:16:03;;;;;;;3.88;2.55;;;;;;;;;;4942939;28;20066;-80
2024/01/16 02:18:30;;;;;;;6.05;3.50;;;;;;;;;;4925213;29;20526;-80
2024/01/16 02:21:03;;;;;;;6.95;2.92;;;;;;;;;;4925420;29;20060;-80
2024/01/16 02:23:31;;;;;;;6.60;3.53;;;;;;;;;;4926641;29;20498;-80
2024/01/16 02:25:58;;;;;;;9.05;2.85;;;;;;;;;;4942548;29;20078;-80
2024/01/16 02:28:25;;;;;;;5.15;2.90;;;;;;;;;;4942142;29;20051;-80
2024/01/16 02:30:51;;;;;;;4.72;3.03;;;;;;;;;;4926439;29;20415;-80
2024/01/16 02:33:18;;;;;;;4.28;2.67;;;;;;;;;;4925971;29;20051;-81
2024/01/16 02:35:45;;;;;;;5.32;3.03;;;;;;;;;;4923569;29;20051;-80
2024/01/16 02:38:12;;;;;;;4.10;2.83;;;;;;;;;;4926127;29;20056;-80
2024/01/16 02:40:40;;;;;;;7.53;2.97;;;;;;;;;;4926231;29;20063;-77
2024/01/16 02:43:07;;;;;;;4.53;2.58;;;;;;;;;;4957097;29;20048;-78
2024/01/16 02:45:34;;;;;;;5.80;2.80;;;;;;;;;;4925991;29;20055;-78
2024/01/16 02:48:01;;;;;;;4.85;2.60;;;;;;;;;;4941728;29;20470;-81
2024/01/16 02:50:28;;;;;;;5.75;3.15;;;;;;;;;;4942283;28;20055;-81
2024/01/16 02:52:55;;;;;;;5.85;3.08;;;;;;;;;;4941482;29;20129;-81
2024/01/16 02:55:21;;;;;;;5.60;2.65;;;;;;;;;;4926037;29;20146;-78
2024/01/16 02:57:48;;;;;;;9.57;3.53;;;;;;;;;;4939391;29;20103;-79
2024/01/16 03:00:15;;;;;;;6.25;3.42;;;;;;;;;;4925533;29;20055;-78
2024/01/16 03:02:42;;;;;;;5.38;2.85;;;;;;;;;;4957356;28;20047;-78
2024/01/16 03:05:10;;;;;;;7.93;3.53;;;;;;;;;;4925244;29;20059;-79
2024/01/16 03:07:37;;;;;;;4.75;3.00;;;;;;;;;;4926215;29;20607;-78
2024/01/16 03:10:04;;;;;;;3.80;2.80;;;;;;;;;;4949394;29;20110;-78
2024/01/16 03:12:31;;;;;;;4.57;3.17;;;;;;;;;;4937222;29;20043;-78
2024/01/16 03:14:58;;;;;;;4.25;2.97;;;;;;;;;;4923658;29;20051;-78
2024/01/16 03:17:24;;;;;;;5.18;3.17;;;;;;;;;;4934653;29;20047;-78
2024/01/16 03:19:51;;;;;;;4.50;2.95;;;;;;;;;;4921326;29;20582;-78
2024/01/16 03:22:18;;;;;;;5.90;3.20;;;;;;;;;;4939776;29;20083;-78
2024/01/16 03:24:45;;;;;;;6.85;2.88;;;;;;;;;;4939871;29;20106;-78
2024/01/16 03:27:13;;;;;;;6.45;2.65;;;;;;;;;;4924549;29;20078;-78
2024/01/16 03:29:40;;;;;;;7.60;3.30;;;;;;;;;;4920392;29;20107;-78
2024/01/16 03:32:07;;;;;;;4.22;2.92;;;;;;;;;;4948033;29;20047;-77
2024/01/16 03:34:34;;;;;;;6.22;3.08;;;;;;;;;;4940014;29;20570;-78
2024/01/16 03:37:00;;;;;;;5.22;3.65;;;;;;;;;;4924479;29;20503;-78
2024/01/16 03:39:28;;;;;;;7.13;3.20;;;;;;;;;;4942820;29;20051;-80
2024/01/16 03:41:54;;;;;;;5.47;3.03;;;;;;;;;;4919592;29;20048;-81
2024/01/16 03:44:21;;;;;;;9.13;3.83;;;;;;;;;;4936758;29;20111;-81
2024/01/16 03:46:48;;;;;;;5.97;3.65;;;;;;;;;;4942340;29;20722;-80
2024/01/16 03:49:15;;;;;;;5.95;3.10;;;;;;;;;;4915591;29;20048;-80
2024/01/16 03:51:46;;;;;;;6.90;3.10;;;;;;;;;;4937655;29;20059;-81
2024/01/16 03:54:13;;;;;;;4.80;2.63;;;;;;;;;;4943136;29;20550;-81
2024/01/16 03:56:40;;;;;;;11.10;3.60;;;;;;;;;;4927553;29;20117;-81
2024/01/16 03:59:07;;;;;;;3.70;2.60;;;;;;;;;;4928070;29;20518;-81
2024/01/16 04:01:36;;;;;;;5.78;3.10;;;;;;;;;;4928377;29;20054;-82
2024/01/16 04:04:06;;;;;;;4.93;2.72;;;;;;;;;;4945235;28;20059;-81
2024/01/16 04:06:33;;;;;;;6.30;3.38;;;;;;;;;;4930497;29;20069;-81
2024/01/16 04:09:00;;;;;;;5.30;3.25;;;;;;;;;;4929518;29;20078;-81
2024/01/16 04:11:27;;;;;;;5.25;3.38;;;;;;;;;;4929353;29;20126;-81
2024/01/16 04:13:55;;;;;;;7.20;3.20;;;;;;;;;;4927678;29;20051;-82
2024/01/16 04:16:21;;;;;;;5.18;3.15;;;;;;;;;;4943682;29;20066;-82
2024/01/16 04:18:48;;;;;;;5.40;3.00;;;;;;;;;;4938546;28;20089;-82
2024/01/16 04:21:15;;;;;;;8.80;3.67;;;;;;;;;;4960477;28;20062;-80
2024/01/16 04:23:46;;;;;;;4.78;2.55;;;;;;;;;;4943439;28;20502;-80
2024/01/16 04:26:13;;;;;;;4.05;2.67;;;;;;;;;;4939741;29;20117;-80
2024/01/16 04:28:40;;;;;;;8.02;3.20;;;;;;;;;;4940915;29;20055;-80
2024/01/16 04:31:07;;;;;;;6.78;2.92;;;;;;;;;;4925618;29;20061;-80
2024/01/16 04:33:34;;;;;;;7.70;3.58;;;;;;;;;;4941649;29;20051;-80
2024/01/16 04:36:01;;;;;;;7.38;3.22;;;;;;;;;;4957313;29;20156;-80
2024/01/16 04:38:28;;;;;;;8.50;3.30;;;;;;;;;;4922697;29;20108;-80
2024/01/16 04:40:55;;;;;;;7.85;3.80;;;;;;;;;;4939739;29;20082;-80
2024/01/16 04:43:22;;;;;;;5.78;3.05;;;;;;;;;;4925521;29;20074;-81
2024/01/16 04:45:49;;;;;;;4.22;2.97;;;;;;;;;;4941492;29;20515;-81
2024/01/16 04:48:16;;;;;;;5.18;2.90;;;;;;;;;;4922124;29;20064;-81
2024/01/16 04:50:45;;;;;;;6.75;2.80;;;;;;;;;;4938599;28;20110;-81
2024/01/16 04:53:12;;;;;;;5.72;2.92;;;;;;;;;;4925757;29;20086;-81
2024/01/16 04:55:39;;;;;;;5.25;2.83;;;;;;;;;;4943350;28;20065;-81
2024/01/16 04:58:07;;;;;;;6.75;2.92;;;;;;;;;;4939177;29;20055;-82
2024/01/16 05:00:34;;;;;;;9.38;4.10;;;;;;;;;;4927125;29;20059;-81
2024/01/16 05:03:04;;;;;;;7.50;3.75;;;;;;;;;;4928219;29;20085;-81
2024/01/16 05:05:31;;;;;;;9.18;5.43;;;;;;;;;;4926332;29;20055;-81
2024/01/16 05:08:00;;;;;;;8.00;4.78;;;;;;;;;;4923496;29;20067;-82
2024/01/16 05:10:27;;;;;;;8.35;4.75;;;;;;;;;;4957728;29;20054;-81
2024/01/16 05:12:54;;;;;;;6.47;3.95;;;;;;;;;;4941958;29;20051;-81
2024/01/16 05:15:21;;;;;;;10.00;4.07;;;;;;;;;;4942207;29;20079;-82
2024/01/16 05:17:48;;;;;;;6.60;3.53;;;;;;;;;;4941377;29;20059;-80
2024/01/16 05:20:15;;;;;;;10.00;3.90;;;;;;;;;;4925516;29;20082;-81
2024/01/16 05:22:42;;;;;;;6.75;4.15;;;;;;;;;;4958056;29;20064;-81
2024/01/16 05:25:09;;;;;;;5.03;3.20;;;;;;;;;;4923132;29;20059;-81
2024/01/16 05:27:36;;;;;;;8.73;3.65;;;;;;;;;;4938366;29;20063;-80
2024/01/16 05:30:03;;;;;;;11.40;6.82;;;;;;;;;;4925411;29;20054;-80
2024/01/16 05:32:30;;;;;;;13.05;8.38;;;;;;;;;;4926500;29;20054;-81
2024/01/16 05:34:58;;;;;;;14.48;8.25;;;;;;;;;;4942470;29;20062;-81
2024/01/16 05:37:25;;;;;;;12.27;5.60;;;;;;;;;;4921905;29;20047;-83
2024/01/16 05:39:52;;;;;;;8.88;4.60;;;;;;;;;;4920516;29;20183;-85
2024/01/16 05:42:19;;;;;;;9.15;4.50;;;;;;;;;;4917183;29;20052;-78
2024/01/16 05:44:46;;;;;;;7.07;4.03;;;;;;;;;;4936448;29;20051;-81
2024/01/16 05:47:13;;;;;;;6.18;3.55;;;;;;;;;;4939505;29;20054;-80
2024/01/16 05:49:41;;;;;;;5.43;3.33;;;;;;;;;;4936411;29;20048;-79
2024/01/16 05:52:08;;;;;;;8.93;4.05;;;;;;;;;;4948533;29;20055;-79
2024/01/16 05:54:35;;;;;;;7.88;3.42;;;;;;;;;;4933373;29;20040;-82
2024/01/16 05:57:03;;;;;;;5.88;3.30;;;;;;;;;;4936771;29;20115;-79
2024/01/16 05:59:30;;;;;;;7.88;3.15;;;;;;;;;;4953080;29;20051;-80
2024/01/16 06:01:57;;;;;;;10.85;3.78;;;;;;;;;;4937181;29;20066;-80
2024/01/16 06:04:24;;;;;;;7.93;3.90;;;;;;;;;;4936508;29;20051;-80
2024/01/16 06:06:51;;;;;;;7.18;3.38;;;;;;;;;;4927043;29;20059;-81
2024/01/16 06:09:18;;;;;;;7.18;3.50;;;;;;;;;;4933010;29;20047;-82
2024/01/16 06:11:45;;;;;;;8.45;4.05;;;;;;;;;;4921679;29;20066;-81
2024/01/16 06:14:12;;;;;;;6.15;3.38;;;;;;;;;;4934373;28;20079;-81
2024/01/16 06:16:39;;;;;;;7.88;3.67;;;;;;;;;;4942682;28;20047;-82
2024/01/16 06:19:09;;;;;;;7.72;3.67;;;;;;;;;;4935576;28;20039;-82
2024/01/16 06:21:39;;;;;;;6.82;3.75;;;;;;;;;;4962966;28;20040;-81
2024/01/16 06:24:06;;;;;;;5.30;3.50;;;;;;;;;;4941018;28;20484;-81
2024/01/16 06:26:33;;;;;;;5.82;3.50;;;;;;;;;;4953637;29;20074;-81
2024/01/16 06:29:00;;;;;;;4.28;2.97;;;;;;;;;;4936735;29;20062;-80
2024/01/16 06:31:27;;;;;;;8.07;3.65;;;;;;;;;;4923721;28;20079;-81
2024/01/16 06:33:54;;;;;;;9.68;4.40;;;;;;;;;;4925074;29;20054;-81
2024/01/16 06:36:21;;;;;;;9.98;4.43;;;;;;;;;;4918693;29;20105;-81
2024/01/16 06:38:48;;;;;;;8.20;3.95;;;;;;;;;;4923594;29;20074;-82
2024/01/16 06:41:14;;;;;;;9.63;3.15;;;;;;;;;;4924047;29;20055;-83
2024/01/16 06:43:41;;;;;;;6.50;3.25;;;;;;;;;;4923326;29;20077;-82
2024/01/16 06:46:08;;;;;;;4.53;3.20;;;;;;;;;;4921595;29;20063;-82
2024/01/16 06:48:38;;;;;;;5.38;3.25;;;;;;;;;;4924233;28;20105;-80
2024/01/16 06:51:05;;;;;;;6.53;3.15;;;;;;;;;;4921380;29;20083;-83
2024/01/16 06:53:32;;;;;;;7.00;3.60;;;;;;;;;;4915159;29;20043;-84
2024/01/16 06:55:59;;;;;;;6.32;3.55;;;;;;;;;;4922952;29;20067;-85
2024/01/16 06:58:26;;;;;;;3.90;2.70;;;;;;;;;;4935977;29;20111;-85
2024/01/16 07:00:53;;;;;;;5.53;3.25;;;;;;;;;;4938771;29;20064;-85
2024/01/16 07:03:20;;;;;;;7.03;3.45;;;;;;;;;;4923229;29;20086;-81
2024/01/16 07:05:50;;;;;;;10.13;3.42;;;;;;;;;;4928870;29;20074;-84
2024/01/16 07:08:17;;;;;;;5.90;2.80;;;;;;;;;;4922801;29;20051;-83
2024/01/16 07:10:46;;;;;;;7.00;3.00;;;;;;;;;;4919292;29;20048;-82
2024/01/16 07:13:14;;;;;;;6.45;3.50;;;;;;;;;;4924205;29;20058;-82
2024/01/16 07:15:41;;;;;;;9.23;3.13;;;;;;;;;;4940838;29;20419;-81
2024/01/16 07:18:08;;;;;;;9.43;4.35;;;;;;;;;;4924311;29;20055;-82
2024/01/16 07:20:35;;;;;;;6.65;3.60;;;;;;;;;;4940026;29;20079;-82
2024/01/16 07:23:02;;;;;;;7.65;3.28;;;;;;;;;;4920940;29;20095;-84
2024/01/16 07:25:29;;;;;;;8.52;3.97;;;;;;;;;;4925482;29;20066;-83
2024/01/16 07:27:56;;;;;;;6.30;3.33;;;;;;;;;;4928536;29;20608;-82
2024/01/16 07:30:23;;;;;;;7.20;2.97;;;;;;;;;;4926181;29;20051;-83
2024/01/16 07:32:51;;;;;;;5.78;3.17;;;;;;;;;;4925043;29;20085;-83
2024/01/16 07:35:18;;;;;;;6.22;3.22;;;;;;;;;;4940464;29;20062;-82
2024/01/16 07:37:45;;;;;;;3.80;2.63;;;;;;;;;;4924646;29;20471;-82
2024/01/16 07:40:12;;;;;;;6.32;3.42;;;;;;;;;;4942921;29;20079;-83
2024/01/16 07:42:39;;;;;;;6.18;3.38;;;;;;;;;;4920160;29;20047;-82
2024/01/16 07:45:06;;;;;;;5.57;3.10;;;;;;;;;;4919198;29;20051;-82
2024/01/16 07:47:33;;;;;;;4.30;2.58;;;;;;;;;;4939104;29;20047;-82
2024/01/16 07:50:01;;;;;;;8.60;3.45;;;;;;;;;;4920477;29;20055;-81
2024/01/16 07:52:31;;;;;;;4.80;2.70;;;;;;;;;;4923532;29;20158;-82
2024/01/16 07:54:58;;;;;;;4.95;2.83;;;;;;;;;;4924198;29;20047;-83
2024/01/16 07:57:25;;;;;;;8.07;2.83;;;;;;;;;;4926501;28;20047;-82
2024/01/16 07:59:51;;;;;;;6.88;3.38;;;;;;;;;;4945495;29;20075;-84
2024/01/16 08:02:18;;;;;;;5.38;2.88;;;;;;;;;;4929494;29;20063;-83
2024/01/16 08:04:49;;;;;;;7.35;3.28;;;;;;;;;;4936520;29;20055;-83
2024/01/16 08:07:16;;;;;;;7.18;3.17;;;;;;;;;;4936248;29;20063;-83
2024/01/16 08:09:43;;;;;;;5.65;3.40;;;;;;;;;;4925596;28;20137;-83
2024/01/16 08:12:10;;;;;;;6.80;3.78;;;;;;;;;;4922558;29;20077;-83
2024/01/16 08:14:37;;;;;;;13.45;4.60;;;;;;;;;;4922214;29;20123;-83
2024/01/16 08:17:04;;;;;;;6.88;3.60;;;;;;;;;;4922552;29;20050;-83
2024/01/16 08:19:32;;;;;;;8.77;3.85;;;;;;;;;;4938997;29;20079;-83
2024/01/16 08:21:59;;;;;;;4.03;2.60;;;;;;;;;;4943871;29;20051;-83
2024/01/16 08:24:26;;;;;;;5.53;3.00;;;;;;;;;;4943984;29;20102;-83
2024/01/16 08:26:53;;;;;;;6.15;2.97;;;;;;;;;;4925417;29;20079;-83
2024/01/16 08:29:20;;;;;;;7.85;3.28;;;;;;;;;;4935008;29;20063;-83
2024/01/16 08:31:47;;;;;;;4.97;2.42;;;;;;;;;;4925022;29;20047;-83
2024/01/16 08:34:14;;;;;;;4.63;2.80;;;;;;;;;;4924456;29;20051;-83
2024/01/16 08:36:41;;;;;;;5.03;2.58;;;;;;;;;;4928216;29;20051;-83
2024/01/16 08:39:08;;;;;;;4.43;2.35;;;;;;;;;;4932682;29;20055;-83
2024/01/16 08:41:35;;;;;;;5.60;2.60;;;;;;;;;;4928045;29;20047;-84
2024/01/16 08:44:01;;;;;;;5.32;2.50;;;;;;;;;;4935044;29;20051;-83
2024/01/16 08:46:28;;;;;;;4.78;2.80;;;;;;;;;;4939226;29;20066;-83
2024/01/16 08:48:55;;;;;;;7.20;3.47;;;;;;;;;;4925488;29;20078;-83
2024/01/16 08:51:23;;;;;;;6.32;3.20;;;;;;;;;;4939326;29;20051;-84
2024/01/16 08:53:50;;;;;;;6.80;2.63;;;;;;;;;;4924267;29;20130;-83
2024/01/16 08:56:17;;;;;;;6.45;3.50;;;;;;;;;;4923973;29;20051;-84
2024/01/16 08:58:45;;;;;;;8.60;3.38;;;;;;;;;;4922344;29;20083;-83
2024/01/16 09:01:12;;;;;;;4.60;2.92;;;;;;;;;;4921603;29;20143;-83
2024/01/16 09:03:39;;;;;;;4.05;2.75;;;;;;;;;;4932339;29;20078;-84
2024/01/16 09:06:06;;;;;;;8.07;4.15;;;;;;;;;;4916604;29;20047;-84
2024/01/16 09:08:33;;;;;;;7.70;2.65;;;;;;;;;;4922546;29;20097;-84
2024/01/16 09:11:00;;;;;;;6.38;3.38;;;;;;;;;;4927539;29;20127;-84
2024/01/16 09:13:27;;;;;;;8.80;3.97;;;;;;;;;;4926924;29;20107;-84
2024/01/16 09:15:54;;;;;;;7.05;3.28;;;;;;;;;;4921600;29;20056;-84
2024/01/16 09:18:21;;;;;;;4.82;3.08;;;;;;;;;;4933926;28;20055;-83
2024/01/16 09:20:48;;;;;;;3.67;2.40;;;;;;;;;;4923394;29;20051;-84
2024/01/16 09:23:15;;;;;;;5.28;3.05;;;;;;;;;;4922584;29;20081;-84
2024/01/16 09:25:42;;;;;;;5.57;3.17;;;;;;;;;;4955757;29;20420;-84
2024/01/16 09:28:14;;;;;;;7.20;3.47;;;;;;;;;;4938978;29;20418;-84
2024/01/16 09:30:44;;;;;;;4.82;2.95;;;;;;;;;;4925688;29;20051;-84
2024/01/16 09:33:12;;;;;;;8.18;2.97;;;;;;;;;;4955646;29;20070;-84
2024/01/16 09:35:39;;;;;;;8.00;3.15;;;;;;;;;;4940296;29;20047;-84
2024/01/16 09:38:05;;;;;;;7.50;3.00;;;;;;;;;;4928422;29;20102;-83
2024/01/16 09:40:33;;;;;;;5.65;2.72;;;;;;;;;;4930467;29;20090;-83
2024/01/16 09:43:00;;;;;;;6.40;2.75;;;;;;;;;;4926719;29;20098;-84
2024/01/16 09:45:27;;;;;;;6.90;2.95;;;;;;;;;;4922734;29;20055;-84
2024/01/16 09:47:54;;;;;;;6.20;2.92;;;;;;;;;;4934062;28;20046;-84
2024/01/16 09:50:22;;;;;;;4.13;2.70;;;;;;;;;;4920110;29;20092;-84
2024/01/16 09:52:49;;;;;;;4.15;2.85;;;;;;;;;;4951015;29;20599;-84
2024/01/16 09:55:16;;;;;;;6.38;2.50;;;;;;;;;;4920964;29;20051;-83
2024/01/16 09:57:45;;;;;;;8.73;2.85;;;;;;;;;;4922225;29;20051;-83
2024/01/16 10:00:12;;;;;;;3.70;2.53;;;;;;;;;;4918599;29;20102;-83
2024/01/16 10:02:40;;;;;;;4.70;2.75;;;;;;;;;;4937808;29;20058;-84
2024/01/16 10:05:08;;;;;;;9.68;3.28;;;;;;;;;;4916170;29;20051;-84
2024/01/16 10:07:37;;;;;;;5.95;3.20;;;;;;;;;;4917620;29;20107;-84
2024/01/16 10:10:05;;;;;;;9.15;3.08;;;;;;;;;;4921620;29;20510;-84
2024/01/16 10:12:32;;;;;;;8.88;3.72;;;;;;;;;;4933197;29;20047;-85
2024/01/16 10:14:59;;;;;;;6.85;4.18;;;;;;;;;;4927657;29;20123;-84
2024/01/16 10:17:37;;;;;;;4.55;2.90;;;;;;;;;;4921187;29;20110;-84
2024/01/16 10:20:05;;;;;;;7.90;3.13;;;;;;;;;;4921248;29;20065;-83
2024/01/16 10:22:32;;;;;;;5.63;2.55;;;;;;;;;;4926828;29;20142;-84
2024/01/16 10:25:05;;;;;;;4.57;2.60;;;;;;;;;;4920280;29;20044;-85
2024/01/16 10:27:33;;;;;;;5.28;2.92;;;;;;;;;;4950960;29;20542;-85
2024/01/16 10:30:00;;;;;;;4.32;2.67;;;;;;;;;;4933570;28;20063;-84
2024/01/16 10:32:34;;;;;;;6.20;2.97;;;;;;;;;;4927789;29;20055;-84
2024/01/16 10:35:11;;;;;;;7.45;3.42;;;;;;;;;;4938076;29;20051;-84
2024/01/16 10:37:52;;;;;;;5.18;2.60;;;;;;;;;;4963572;28;20678;-83
2024/01/16 10:40:25;;;;;;;7.43;3.40;;;;;;;;;;4960994;29;20044;-84
2024/01/16 10:43:01;;;;;;;6.75;2.83;;;;;;;;;;4940248;28;20184;-84
2024/01/16 10:45:28;;;;;;;4.43;2.50;;;;;;;;;;4960158;29;20050;-84
2024/01/16 10:48:15;;;;;;;5.35;2.80;;;;;;;;;;4931270;29;20095;-85
2024/01/16 10:50:43;;;;;;;5.07;3.20;;;;;;;;;;4958041;28;20064;-85
2024/01/16 10:53:10;;;;;;;6.30;2.67;;;;;;;;;;4928581;29;20056;-84
2024/01/16 10:55:40;;;;;;;6.78;2.42;;;;;;;;;;4961130;29;20055;-84
2024/01/16 10:58:07;;;;;;;5.47;2.83;;;;;;;;;;4946931;29;20047;-84
2024/01/16 11:00:39;;;;;;;6.88;3.80;;;;;;;;;;4930721;29;20051;-85
2024/01/16 11:03:07;;;;;;;4.72;2.90;;;;;;;;;;4927533;29;20130;-83
2024/01/16 11:05:35;;;;;;;6.65;3.28;;;;;;;;;;4937550;29;20051;-84
2024/01/16 11:08:13;;;;;;;5.28;2.70;;;;;;;;;;4931082;28;20067;-84
2024/01/16 11:10:50;;;;;;;5.15;2.63;;;;;;;;;;4940520;29;20611;-85
2024/01/16 11:13:17;;;;;;;3.80;2.53;;;;;;;;;;4942384;29;20073;-84
2024/01/16 11:15:43;;;;;;;11.02;5.75;;;;;;;;;;4945834;29;20071;-85
2024/01/16 11:18:14;;;;;;;6.80;3.50;;;;;;;;;;4928540;29;20102;-85
2024/01/16 11:20:42;;;;;;;7.18;3.15;;;;;;;;;;4940936;29;20055;-84
2024/01/16 11:23:12;;;;;;;6.18;3.10;;;;;;;;;;4924882;29;20696;-84
2024/01/16 11:25:39;;;;;;;5.97;2.25;;;;;;;;;;4937574;29;20562;-85
2024/01/16 11:28:11;;;;;;;4.60;2.55;;;;;;;;;;4923547;29;20047;-85
2024/01/16 11:30:38;;;;;;;6.53;2.67;;;;;;;;;;4923788;29;20055;-85
2024/01/16 11:33:05;;;;;;;3.90;2.00;;;;;;;;;;4923754;29;20515;-85
2024/01/16 11:35:36;;;;;;;4.20;2.33;;;;;;;;;;4926543;29;20063;-85
2024/01/16 11:38:26;;;;;;;3.08;2.13;;;;;;;;;;4926081;29;20123;-85
2024/01/16 11:40:56;;;;;;;5.50;2.28;;;;;;;;;;4941780;29;20098;-85
2024/01/16 11:43:32;;;;;;;4.43;2.30;;;;;;;;;;4929615;29;20106;-87
2024/01/16 11:46:01;;;;;;;3.45;1.73;;;;;;;;;;4956554;29;20162;-85
2024/01/16 11:48:28;;;;;;;3.42;1.40;;;;;;;;;;4945165;28;20047;-84
2024/01/16 11:50:55;;;;;;;5.00;2.85;;;;;;;;;;4922581;29;20057;-82
2024/01/16 11:53:39;;;;;;;6.60;2.35;;;;;;;;;;4921664;29;20495;-82
2024/01/16 11:56:22;;;;;;;7.20;3.50;;;;;;;;;;4922930;29;20055;-82
2024/01/16 11:59:40;;;;;;;7.47;2.40;;;;;;;;;;4927720;29;20058;-82
2024/01/16 12:02:14;;;;;;;6.75;1.80;;;;;;;;;;4953433;28;20463;-83
2024/01/16 12:04:41;;;;;;;5.35;2.00;;;;;;;;;;4940151;29;20054;-85
2024/01/16 12:07:08;;;;;;;4.72;2.00;;;;;;;;;;4926191;29;20479;-85
2024/01/16 12:09:35;;;;;;;4.53;2.10;;;;;;;;;;4926950;29;20102;-85
2024/01/16 12:12:04;;;;;;;5.88;2.47;;;;;;;;;;4925757;29;20091;-85
2024/01/16 12:14:31;;;;;;;3.45;2.03;;;;;;;;;;4927303;29;20055;-85
2024/01/16 12:17:14;;;;;;;3.97;1.33;;;;;;;;;;4927851;29;20079;-85
2024/01/16 12:19:42;;;;;;;2.22;1.30;;;;;;;;;;4947334;28;20131;-85
2024/01/16 12:22:10;;;;;;;4.88;2.08;;;;;;;;;;4921950;29;20071;-85
2024/01/16 12:24:37;;;;;;;4.88;1.90;;;;;;;;;;4926189;29;20545;-85
2024/01/16 12:27:05;;;;;;;2.60;1.38;;;;;;;;;;4924579;29;20054;-85
2024/01/16 12:29:32;;;;;;;3.78;1.67;;;;;;;;;;4925115;29;20047;-86
2024/01/16 12:32:14;;;;;;;1.85;1.42;;;;;;;;;;4924588;29;20055;-85
2024/01/16 12:34:47;;;;;;;4.47;1.15;;;;;;;;;;4923806;29;20075;-85
2024/01/16 12:37:15;;;;;;;4.07;1.45;;;;;;;;;;4925713;29;20054;-86
2024/01/16 12:39:43;;;;;;;4.93;1.20;;;;;;;;;;4923808;29;20043;-85
2024/01/16 12:42:10;;;;;;;2.45;1.00;;;;;;;;;;4926020;29;20043;-85
2024/01/16 12:44:37;;;;;;;2.63;1.15;;;;;;;;;;4943620;29;20139;-85
2024/01/16 12:47:04;;;;;;;3.13;1.33;;;;;;;;;;4932155;29;20047;-86
2024/01/16 12:49:31;;;;;;;5.82;1.75;;;;;;;;;;4931217;28;20572;-85
2024/01/16 12:52:21;;;;;;;3.13;1.10;;;;;;;;;;4930099;29;20059;-86
2024/01/16 12:54:50;;;;;;;1.65;0.85;;;;;;;;;;4941858;29;20106;-86
2024/01/16 12:57:19;;;;;;;1.13;0.80;;;;;;;;;;4924376;29;20428;-85
2024/01/16 12:59:48;;;;;;;2.80;1.27;;;;;;;;;;4926990;29;20051;-86
2024/01/16 13:02:25;;;;;;;1.23;1.08;;;;;;;;;;4927013;29;20055;-86
2024/01/16 13:04:57;;;;;;;1.80;1.13;;;;;;;;;;4924839;29;20130;-86
2024/01/16 13:07:26;;;;;;;1.50;0.93;;;;;;;;;;4925094;29;20094;-86
2024/01/16 13:10:11;;;;;;;4.65;1.20;;;;;;;;;;4931356;29;20058;-86
2024/01/16 13:12:38;;;;;;;3.22;1.02;;;;;;;;;;4926283;29;20047;-86
2024/01/16 13:15:05;;;;;;;1.73;0.93;;;;;;;;;;4924949;29;20039;-85
2024/01/16 13:17:34;;;;;;;5.10;1.25;;;;;;;;;;4933748;29;20079;-86
2024/01/16 13:20:02;;;;;;;1.88;1.20;;;;;;;;;;4924758;29;20059;-85
2024/01/16 13:22:29;;;;;;;2.75;1.60;;;;;;;;;;4940714;29;20574;-86
2024/01/16 13:25:10;;;;;;;3.97;1.10;;;;;;;;;;4934377;29;20125;-85
2024/01/16 13:27:37;;;;;;;4.25;1.30;;;;;;;;;;4924571;29;20058;-86
2024/01/16 13:30:04;;;;;;;2.88;1.40;;;;;;;;;;4940031;29;20070;-86
2024/01/16 13:32:31;;;;;;;2.28;1.20;;;;;;;;;;4916958;29;20561;-86
2024/01/16 13:34:58;;;;;;;2.88;1.30;;;;;;;;;;4924388;29;20518;-85
2024/01/16 13:37:25;;;;;;;3.15;1.00;;;;;;;;;;4939338;29;20051;-86
2024/01/16 13:39:52;;;;;;;1.85;1.00;;;;;;;;;;4928652;29;20475;-86
2024/01/16 13:42:20;;;;;;;3.50;1.08;;;;;;;;;;4932201;29;20073;-85
2024/01/16 13:44:46;;;;;;;4.53;1.33;;;;;;;;;;4961485;29;20047;-85
2024/01/16 13:47:15;;;;;;;4.00;1.85;;;;;;;;;;4946310;29;20057;-86
2024/01/16 13:49:46;;;;;;;1.50;1.03;;;;;;;;;;4931672;29;20059;-86
2024/01/16 13:52:13;;;;;;;3.25;1.48;;;;;;;;;;4946696;29;20062;-85
2024/01/16 13:54:41;;;;;;;5.97;1.35;;;;;;;;;;4936851;29;20043;-85
2024/01/16 13:57:08;;;;;;;3.80;1.40;;;;;;;;;;4964471;29;20086;-85
2024/01/16 13:59:39;;;;;;;4.13;1.27;;;;;;;;;;4944859;29;20035;-86
2024/01/16 14:02:08;;;;;;;5.30;1.55;;;;;;;;;;4950238;29;20035;-86
2024/01/16 14:04:35;;;;;;;4.38;1.50;;;;;;;;;;4938243;28;20122;-85
2024/01/16 14:07:03;;;;;;;2.75;1.20;;;;;;;;;;4931030;29;20051;-85
2024/01/16 14:09:43;;;;;;;3.53;1.40;;;;;;;;;;4925815;29;20130;-85
2024/01/16 14:12:12;;;;;;;2.72;1.38;;;;;;;;;;4925052;29;20044;-85
2024/01/16 14:14:42;;;;;;;2.10;1.30;;;;;;;;;;4924430;29;20043;-85
2024/01/16 14:17:10;;;;;;;2.92;1.38;;;;;;;;;;4937220;29;20059;-86
2024/01/16 14:19:38;;;;;;;5.28;1.75;;;;;;;;;;4938804;29;20055;-85
2024/01/16 14:22:05;;;;;;;4.00;1.27;;;;;;;;;;4932574;28;20582;-85
2024/01/16 14:24:32;;;;;;;4.22;1.33;;;;;;;;;;4923118;29;20062;-85
2024/01/16 14:26:59;;;;;;;3.22;1.20;;;;;;;;;;4934659;29;20750;-85
2024/01/16 14:29:29;;;;;;;2.38;1.40;;;;;;;;;;4923284;29;20508;-85
2024/01/16 14:31:56;;;;;;;5.57;1.88;;;;;;;;;;4922582;29;20055;-85
2024/01/16 14:34:25;;;;;;;5.32;2.00;;;;;;;;;;4923647;29;20051;-85
2024/01/16 14:36:53;;;;;;;5.43;1.88;;;;;;;;;;4919086;29;20047;-85
2024/01/16 14:39:24;;;;;;;1.92;1.42;;;;;;;;;;4926082;29;20073;-85
2024/01/16 14:41:53;;;;;;;3.05;1.73;;;;;;;;;;4938119;29;20118;-85
2024/01/16 14:44:20;;;;;;;2.15;1.63;;;;;;;;;;4919112;29;20054;-84
2024/01/16 14:46:47;;;;;;;3.72;1.50;;;;;;;;;;4927544;29;20051;-85
2024/01/16 14:49:18;;;;;;;4.95;1.80;;;;;;;;;;4943163;29;20066;-85